Time;durP1;ratioP1;P1;durP2;ratioP2;P2;SDS_P1;SDS_P2;PMS_P1;PMS_P2;Temp;Humidity;BMP_temperature;BMP_pressure;BME280_temperature;BME280_humidity;BME280_pressure;Samples;Min_cycle;Max_cycle;Signal;HPM_P1;HPM_P2
2024/03/21 00:00:44;;;;;;;;;;;;;;;20.74;32.99;101250.34;102650;1295;62219;-79
2024/03/21 00:03:09;;;;;;;;;;;;;;;20.75;33.09;101254.96;102676;1300;62560;-79
2024/03/21 00:05:35;;;;;;;;;;;;;;;20.74;33.13;101263.02;102588;1294;62100;-79
2024/03/21 00:08:01;;;;;;;;;;;;;;;20.75;33.04;101277.52;102633;1294;62203;-80
2024/03/21 00:10:29;;;;;;;;;;;;;;;20.75;33.11;101292.87;102550;1295;63378;-80
2024/03/21 00:12:54;;;;;;;;;;;;;;;20.75;33.22;101303.94;102602;1294;62357;-79
2024/03/21 00:15:20;;;;;;;;;;;;;;;20.75;33.15;101290.70;102585;1294;62170;-79
2024/03/21 00:17:46;;;;;;;;;;;;;;;20.75;33.20;101288.73;102458;1299;62153;-79
2024/03/21 00:20:12;;;;;;;;;;;;;;;20.75;33.16;101279.42;102248;1300;62501;-79
2024/03/21 00:22:38;;;;;;;;;;;;;;;20.76;33.02;101266.67;102436;1298;62396;-81
2024/03/21 00:25:04;;;;;;;;;;;;;;;20.76;33.30;101266.30;102418;1297;63109;-80
2024/03/21 00:27:31;;;;;;;;;;;;;;;20.76;33.12;101281.88;102283;1298;63381;-81
2024/03/21 00:29:57;;;;;;;;;;;;;;;20.76;33.21;101276.16;102288;1300;72441;-79
2024/03/21 00:32:22;;;;;;;;;;;;;;;20.76;33.22;101273.45;102268;1298;62277;-78
2024/03/21 00:34:48;;;;;;;;;;;;;;;20.76;33.24;101280.77;102445;1298;63327;-79
2024/03/21 00:37:14;;;;;;;;;;;;;;;20.77;33.07;101285.23;102462;1297;62368;-80
2024/03/21 00:39:42;;;;;;;;;;;;;;;20.77;33.21;101282.20;102292;1297;62178;-80
2024/03/21 00:42:09;;;;;;;;;;;;;;;20.77;33.05;101277.35;102548;1298;72727;-80
2024/03/21 00:44:35;;;;;;;;;;;;;;;20.77;33.23;101274.48;102291;1298;76026;-79
2024/03/21 00:47:00;;;;;;;;;;;;;;;20.77;33.20;101270.20;102437;1297;63537;-81
2024/03/21 00:49:26;;;;;;;;;;;;;;;20.77;33.00;101270.36;102407;1294;63457;-80
2024/03/21 00:51:51;;;;;;;;;;;;;;;20.77;33.17;101259.45;102522;1293;62208;-79
2024/03/21 00:54:17;;;;;;;;;;;;;;;20.78;33.26;101252.98;102495;1296;62233;-79
2024/03/21 00:56:43;;;;;;;;;;;;;;;20.78;33.17;101247.27;102524;1298;75148;-80
2024/03/21 00:59:08;;;;;;;;;;;;;;;20.78;33.23;101250.48;102593;1295;63500;-80
2024/03/21 01:01:34;;;;;;;;;;;;;;;20.78;33.16;101246.90;102644;1294;62192;-79
2024/03/21 01:03:59;;;;;;;;;;;;;;;20.78;33.13;101244.19;102577;1300;62163;-79
2024/03/21 01:06:25;;;;;;;;;;;;;;;20.78;33.20;101240.29;102606;1294;62195;-79
2024/03/21 01:08:51;;;;;;;;;;;;;;;20.78;33.18;101242.22;102594;1295;74079;-81
2024/03/21 01:11:16;;;;;;;;;;;;;;;20.78;33.19;101242.22;102637;1297;62303;-79
2024/03/21 01:13:42;;;;;;;;;;;;;;;20.78;33.17;101240.98;102517;1294;62229;-79
2024/03/21 01:16:08;;;;;;;;;;;;;;;20.78;33.25;101246.69;102478;1295;63493;-79
2024/03/21 01:18:35;;;;;;;;;;;;;;;20.78;33.14;101245.99;102601;1294;62144;-78
2024/03/21 01:21:01;;;;;;;;;;;;;;;20.79;33.24;101243.83;102577;1300;62253;-80
2024/03/21 01:23:27;;;;;;;;;;;;;;;20.79;33.28;101257.05;102565;1293;63482;-79
2024/03/21 01:25:53;;;;;;;;;;;;;;;20.79;33.19;101267.41;102606;1294;63600;-79
2024/03/21 01:28:18;;;;;;;;;;;;;;;20.79;33.21;101286.70;102542;1298;72217;-80
2024/03/21 01:30:44;;;;;;;;;;;;;;;20.79;33.29;101299.77;102559;1295;62281;-80
2024/03/21 01:33:09;;;;;;;;;;;;;;;20.79;33.21;101307.80;102619;1297;63366;-80
2024/03/21 01:35:35;;;;;;;;;;;;;;;20.79;33.21;101312.80;102635;1294;63455;-78
2024/03/21 01:38:01;;;;;;;;;;;;;;;20.80;33.28;101311.17;102591;1298;62301;-80
2024/03/21 01:40:27;;;;;;;;;;;;;;;20.80;33.23;101301.85;102614;1293;72352;-80
2024/03/21 01:42:52;;;;;;;;;;;;;;;20.80;33.34;101296.69;102554;1295;62396;-80
2024/03/21 01:45:18;;;;;;;;;;;;;;;20.81;33.37;101300.92;102597;1299;62299;-78
2024/03/21 01:47:44;;;;;;;;;;;;;;;20.80;33.27;101295.40;102584;1293;62289;-80
2024/03/21 01:50:10;;;;;;;;;;;;;;;20.80;33.23;101290.75;102564;1294;63459;-79
2024/03/21 01:52:36;;;;;;;;;;;;;;;20.81;33.16;101289.25;102662;1293;62146;-80
2024/03/21 01:55:03;;;;;;;;;;;;;;;20.81;33.24;101272.84;102648;1293;75283;-79
2024/03/21 01:57:29;;;;;;;;;;;;;;;20.81;33.36;101269.05;102636;1295;62192;-79
2024/03/21 01:59:56;;;;;;;;;;;;;;;20.80;33.25;101260.32;102611;1294;62342;-79
2024/03/21 02:02:23;;;;;;;;;;;;;;;20.81;33.28;101259.75;102627;1293;73299;-79
2024/03/21 02:04:49;;;;;;;;;;;;;;;20.81;33.34;101250.45;102593;1297;63482;-79
2024/03/21 02:07:18;;;;;;;;;;;;;;;20.82;33.30;101239.15;102576;1295;62321;-79
2024/03/21 02:09:49;;;;;;;;;;;;;;;20.82;33.35;101231.08;102614;1295;62200;-79
2024/03/21 02:12:35;;;;;;;;;;;;;;;20.82;33.42;101227.14;102655;1297;72470;-78
2024/03/21 02:15:00;;;;;;;;;;;;;;;20.83;33.31;101215.83;102540;1293;76237;-81
2024/03/21 02:17:26;;;;;;;;;;;;;;;20.83;33.41;101209.73;102553;1293;62304;-80
2024/03/21 02:19:52;;;;;;;;;;;;;;;20.83;33.35;101222.22;102522;1294;62196;-79
2024/03/21 02:22:36;;;;;;;;;;;;;;;20.84;33.33;101234.18;102075;1299;761225;-79
2024/03/21 02:25:04;;;;;;;;;;;;;;;20.84;33.28;101234.16;102573;1299;75292;-79
2024/03/21 02:27:31;;;;;;;;;;;;;;;20.84;33.27;101233.24;102596;1297;62120;-78
2024/03/21 02:29:56;;;;;;;;;;;;;;;20.85;33.38;101244.86;102531;1294;62191;-80
2024/03/21 02:32:22;;;;;;;;;;;;;;;20.85;33.41;101248.96;102660;1297;63764;-81
2024/03/21 02:34:48;;;;;;;;;;;;;;;20.84;33.50;101251.30;102639;1294;62543;-80
2024/03/21 02:37:14;;;;;;;;;;;;;;;20.84;33.43;101258.64;102621;1294;63405;-80
2024/03/21 02:39:39;;;;;;;;;;;;;;;20.85;33.35;101261.84;102567;1293;63431;-80
2024/03/21 02:42:05;;;;;;;;;;;;;;;20.85;33.52;101260.94;102594;1294;63550;-79
2024/03/21 02:44:31;;;;;;;;;;;;;;;20.85;33.32;101253.06;102398;1297;72305;-79
2024/03/21 02:46:56;;;;;;;;;;;;;;;20.86;33.48;101246.05;102320;1295;63207;-79
2024/03/21 02:49:22;;;;;;;;;;;;;;;20.86;33.52;101245.34;102289;1297;62137;-79
2024/03/21 02:51:48;;;;;;;;;;;;;;;20.85;33.59;101243.77;102319;1299;62172;-79
2024/03/21 02:54:14;;;;;;;;;;;;;;;20.85;33.53;101243.04;102415;1298;62394;-81
2024/03/21 02:56:41;;;;;;;;;;;;;;;20.85;33.37;101246.26;102477;1300;63419;-78
2024/03/21 02:59:06;;;;;;;;;;;;;;;20.85;33.54;101248.77;102449;1295;62245;-79
2024/03/21 03:01:32;;;;;;;;;;;;;;;20.86;33.58;101249.99;102413;1297;62218;-79
2024/03/21 03:03:57;;;;;;;;;;;;;;;20.85;33.55;101251.63;102290;1297;62224;-79
2024/03/21 03:06:23;;;;;;;;;;;;;;;20.85;33.47;101248.73;102406;1297;63297;-80
2024/03/21 03:08:48;;;;;;;;;;;;;;;20.86;33.47;101248.89;102402;1297;62409;-79
2024/03/21 03:11:14;;;;;;;;;;;;;;;20.85;33.63;101251.06;102465;1296;62148;-79
2024/03/21 03:13:40;;;;;;;;;;;;;;;20.86;33.59;101254.64;102238;1296;62137;-81
2024/03/21 03:16:05;;;;;;;;;;;;;;;20.86;33.51;101259.59;102381;1294;62274;-79
2024/03/21 03:18:31;;;;;;;;;;;;;;;20.86;33.58;101261.77;102652;1294;63369;-79
2024/03/21 03:20:56;;;;;;;;;;;;;;;20.86;33.56;101262.10;102431;1300;63399;-79
2024/03/21 03:23:22;;;;;;;;;;;;;;;20.86;33.66;101256.56;102599;1300;62308;-79
2024/03/21 03:25:47;;;;;;;;;;;;;;;20.87;33.56;101260.27;102640;1297;63307;-78
2024/03/21 03:28:13;;;;;;;;;;;;;;;20.87;33.70;101264.75;102618;1294;62166;-80
2024/03/21 03:30:38;;;;;;;;;;;;;;;20.87;33.64;101267.42;102612;1297;62202;-81
2024/03/21 03:35:33;;;;;;;;;;;;;;;20.87;33.49;101269.41;102554;1294;62927;-78
2024/03/21 03:35:49;;;;;;;;;;;;;;;20.87;33.61;101273.69;102596;1293;62127;-79
2024/03/21 03:38:15;;;;;;;;;;;;;;;20.87;33.64;101270.64;102581;1294;62202;-79
2024/03/21 03:40:41;;;;;;;;;;;;;;;20.88;33.62;101268.98;102575;1295;62257;-79
2024/03/21 03:43:08;;;;;;;;;;;;;;;20.88;33.63;101271.66;102553;1294;62121;-80
2024/03/21 03:45:34;;;;;;;;;;;;;;;20.88;33.73;101271.67;102612;1298;62213;-80
2024/03/21 03:47:59;;;;;;;;;;;;;;;20.88;33.76;101269.70;102582;1294;62211;-80
2024/03/21 03:50:25;;;;;;;;;;;;;;;20.88;33.66;101268.06;102665;1294;63427;-80
2024/03/21 03:52:50;;;;;;;;;;;;;;;20.89;33.77;101271.52;102597;1299;74276;-80
2024/03/21 03:55:16;;;;;;;;;;;;;;;20.88;33.64;101275.58;102632;1294;63473;-78
2024/03/21 03:57:41;;;;;;;;;;;;;;;20.89;33.77;101279.44;102610;1293;63435;-79
2024/03/21 04:00:10;;;;;;;;;;;;;;;20.88;33.77;101277.36;102630;1295;62194;-79
2024/03/21 04:02:43;;;;;;;;;;;;;;;20.89;33.76;101282.87;102670;1297;62217;-78
2024/03/21 04:05:09;;;;;;;;;;;;;;;20.89;33.77;101280.48;102617;1294;75905;-78
2024/03/21 04:07:35;;;;;;;;;;;;;;;20.88;33.49;101281.86;102583;1294;62123;-79
2024/03/21 04:10:01;;;;;;;;;;;;;;;20.89;33.70;101276.65;102608;1297;62196;-79
2024/03/21 04:12:26;;;;;;;;;;;;;;;20.90;33.68;101279.96;102602;1297;63466;-80
2024/03/21 04:14:52;;;;;;;;;;;;;;;20.90;33.77;101280.14;102596;1293;63473;-79
2024/03/21 04:17:18;;;;;;;;;;;;;;;20.90;33.68;101278.91;102537;1294;62153;-79
2024/03/21 04:19:44;;;;;;;;;;;;;;;20.90;33.73;101275.27;102492;1295;63392;-79
2024/03/21 04:22:10;;;;;;;;;;;;;;;20.90;33.88;101277.24;102550;1294;62140;-82
2024/03/21 04:24:41;;;;;;;;;;;;;;;20.90;33.80;101278.30;102645;1297;62653;-79
2024/03/21 04:27:07;;;;;;;;;;;;;;;20.90;33.84;101280.98;102570;1294;75276;-79
2024/03/21 04:29:32;;;;;;;;;;;;;;;20.91;33.84;101282.05;102625;1294;62893;-80
2024/03/21 04:31:58;;;;;;;;;;;;;;;20.91;33.71;101287.40;102649;1294;62207;-80
2024/03/21 04:34:24;;;;;;;;;;;;;;;20.91;33.72;101285.79;102615;1299;62367;-79
2024/03/21 04:36:50;;;;;;;;;;;;;;;20.91;33.67;101275.05;102590;1294;62199;-81
2024/03/21 04:39:16;;;;;;;;;;;;;;;20.91;33.96;101272.73;102643;1295;62347;-79
2024/03/21 04:41:42;;;;;;;;;;;;;;;20.91;33.79;101275.59;102665;1294;62229;-78
2024/03/21 04:44:07;;;;;;;;;;;;;;;20.90;33.74;101278.84;102601;1293;63280;-79
2024/03/21 04:46:33;;;;;;;;;;;;;;;20.91;33.77;101274.52;102609;1294;62154;-81
2024/03/21 04:48:58;;;;;;;;;;;;;;;20.91;33.78;101273.27;102524;1298;62383;-79
2024/03/21 04:51:24;;;;;;;;;;;;;;;20.91;33.63;101275.23;102639;1294;63774;-80
2024/03/21 04:53:50;;;;;;;;;;;;;;;20.90;33.70;101275.26;102642;1294;63221;-80
2024/03/21 04:56:15;;;;;;;;;;;;;;;20.91;33.75;101267.36;102581;1294;63027;-79
2024/03/21 04:58:41;;;;;;;;;;;;;;;20.90;33.71;101267.39;102581;1294;62237;-80
2024/03/21 05:01:06;;;;;;;;;;;;;;;20.90;33.77;101282.10;102588;1295;62899;-80
2024/03/21 05:03:32;;;;;;;;;;;;;;;20.90;33.72;101295.87;102615;1294;63398;-81
2024/03/21 05:05:58;;;;;;;;;;;;;;;20.89;33.57;101287.82;102624;1299;62216;-79
2024/03/21 05:08:25;;;;;;;;;;;;;;;20.89;33.68;101286.47;102609;1297;62127;-80
2024/03/21 05:10:50;;;;;;;;;;;;;;;20.88;33.65;101276.66;102537;1295;62217;-82
2024/03/21 05:13:16;;;;;;;;;;;;;;;20.86;33.58;101274.15;102542;1294;63411;-80
2024/03/21 05:15:49;;;;;;;;;;;;;;;20.82;33.66;101276.34;102513;1292;62226;-79
2024/03/21 05:18:14;;;;;;;;;;;;;;;20.79;33.63;101271.37;102633;1299;62126;-80
2024/03/21 05:20:40;;;;;;;;;;;;;;;20.74;33.57;101260.36;102565;1294;62553;-81
2024/03/21 05:23:05;;;;;;;;;;;;;;;20.70;33.46;101255.80;102745;1292;63468;-80
2024/03/21 05:25:31;;;;;;;;;;;;;;;20.66;33.54;101267.83;102808;1295;62128;-79
2024/03/21 05:27:57;;;;;;;;;;;;;;;20.62;33.66;101284.69;102713;1292;62212;-78
2024/03/21 05:30:23;;;;;;;;;;;;;;;20.59;33.61;101295.20;102777;1292;62256;-79
2024/03/21 05:32:50;;;;;;;;;;;;;;;20.59;33.77;101297.35;102826;1296;72305;-78
2024/03/21 05:35:15;;;;;;;;;;;;;;;20.60;33.75;101300.37;102695;1291;62202;-80
2024/03/21 05:37:41;;;;;;;;;;;;;;;20.59;33.70;101294.17;102907;1294;62197;-80
2024/03/21 05:40:08;;;;;;;;;;;;;;;20.57;33.74;101295.30;102902;1291;62200;-80
2024/03/21 05:42:33;;;;;;;;;;;;;;;20.56;33.78;101297.39;102726;1300;62227;-78
2024/03/21 05:44:59;;;;;;;;;;;;;;;20.54;33.87;101295.56;103190;1294;62196;-78
2024/03/21 05:47:24;;;;;;;;;;;;;;;20.51;33.78;101300.56;103165;1294;62210;-79
2024/03/21 05:49:50;;;;;;;;;;;;;;;20.48;33.79;101304.70;103390;1291;62128;-80
2024/03/21 05:52:16;;;;;;;;;;;;;;;20.45;33.85;101298.44;103210;1294;62247;-80
2024/03/21 05:54:42;;;;;;;;;;;;;;;20.42;33.72;101291.45;103504;1293;63471;-79
2024/03/21 05:57:07;;;;;;;;;;;;;;;20.38;33.84;101292.92;104030;1295;62150;-79
2024/03/21 05:59:33;;;;;;;;;;;;;;;20.36;33.85;101295.05;103990;1297;63481;-79
2024/03/21 06:01:59;;;;;;;;;;;;;;;20.34;33.95;101304.63;104049;1295;62060;-79
2024/03/21 06:04:25;;;;;;;;;;;;;;;20.31;33.83;101306.58;104224;1291;65084;-81
2024/03/21 06:06:51;;;;;;;;;;;;;;;20.29;33.87;101311.89;103717;1292;62292;-79
2024/03/21 06:09:20;;;;;;;;;;;;;;;20.27;34.00;101312.73;103763;1292;62816;-79
2024/03/21 06:11:46;;;;;;;;;;;;;;;20.25;34.03;101313.69;103632;1292;62124;-81
2024/03/21 06:14:11;;;;;;;;;;;;;;;20.25;33.81;101311.54;103667;1291;63475;-79
2024/03/21 06:16:37;;;;;;;;;;;;;;;20.28;33.80;101318.23;103861;1291;62080;-79
2024/03/21 06:19:03;;;;;;;;;;;;;;;20.28;33.90;101316.25;103817;1293;63329;-80
2024/03/21 06:21:29;;;;;;;;;;;;;;;20.29;33.82;101309.26;103945;1294;62115;-80
2024/03/21 06:23:55;;;;;;;;;;;;;;;20.28;33.83;101313.02;103778;1294;62132;-81
2024/03/21 06:26:20;;;;;;;;;;;;;;;20.28;33.89;101315.89;103801;1294;62410;-79
2024/03/21 06:28:46;;;;;;;;;;;;;;;20.27;33.79;101306.83;103740;1294;63473;-79
2024/03/21 06:31:11;;;;;;;;;;;;;;;20.26;33.85;101305.08;103645;1297;62185;-80
2024/03/21 06:33:38;;;;;;;;;;;;;;;20.26;33.81;101302.04;103694;1294;62207;-79
2024/03/21 06:36:05;;;;;;;;;;;;;;;20.25;33.84;101305.30;103829;1297;62207;-79
2024/03/21 06:38:30;;;;;;;;;;;;;;;20.25;33.73;101301.02;103853;1291;62205;-80
2024/03/21 06:40:56;;;;;;;;;;;;;;;20.26;33.68;101309.17;104166;1296;62086;-80
2024/03/21 06:43:21;;;;;;;;;;;;;;;20.26;33.69;101311.84;104302;1293;75413;-81
2024/03/21 06:45:54;;;;;;;;;;;;;;;20.27;33.52;101310.38;104190;1294;62281;-81
2024/03/21 06:48:19;;;;;;;;;;;;;;;20.27;33.51;101316.66;104064;1295;62507;-78
2024/03/21 06:50:45;;;;;;;;;;;;;;;20.27;33.58;101318.80;104017;1297;60315;-79
2024/03/21 06:53:10;;;;;;;;;;;;;;;20.26;33.71;101310.09;104016;1295;62400;-79
2024/03/21 06:55:37;;;;;;;;;;;;;;;20.26;33.60;101307.59;104393;1291;62085;-80
2024/03/21 06:58:03;;;;;;;;;;;;;;;20.24;33.48;101301.46;104479;1294;62120;-80
2024/03/21 07:00:29;;;;;;;;;;;;;;;20.21;33.65;101294.31;104538;1297;60153;-80
2024/03/21 07:02:57;;;;;;;;;;;;;;;20.21;33.83;101297.69;104721;1295;62030;-82
2024/03/21 07:05:26;;;;;;;;;;;;;;;20.22;33.80;101296.96;104608;1297;76502;-80
2024/03/21 07:07:52;;;;;;;;;;;;;;;20.23;34.05;101294.03;104609;1294;62208;-80
2024/03/21 07:10:19;;;;;;;;;;;;;;;20.25;34.10;101294.44;104309;1295;62069;-80
2024/03/21 07:12:44;;;;;;;;;;;;;;;20.26;33.95;101289.33;104340;1292;62071;-78
2024/03/21 07:15:12;;;;;;;;;;;;;;;20.30;34.07;101292.02;104321;1292;62064;-79
2024/03/21 07:17:38;;;;;;;;;;;;;;;20.33;33.90;101298.25;104248;1295;60791;-79
2024/03/21 07:20:04;;;;;;;;;;;;;;;20.36;33.93;101304.89;104034;1292;62173;-79
2024/03/21 07:22:30;;;;;;;;;;;;;;;20.39;34.06;101307.55;104456;1297;62098;-79
2024/03/21 07:24:56;;;;;;;;;;;;;;;20.42;33.90;101300.57;104341;1295;62128;-79
2024/03/21 07:27:21;;;;;;;;;;;;;;;20.44;34.11;101289.68;104420;1293;60601;-78
2024/03/21 07:29:47;;;;;;;;;;;;;;;20.47;34.05;101281.65;104450;1293;60519;-79
2024/03/21 07:32:12;;;;;;;;;;;;;;;20.50;33.92;101284.52;104173;1294;62102;-77
2024/03/21 07:34:38;;;;;;;;;;;;;;;20.53;34.12;101287.58;104052;1292;62200;-78
2024/03/21 07:37:07;;;;;;;;;;;;;;;20.55;34.13;101284.19;104316;1293;62198;-79
2024/03/21 07:39:33;;;;;;;;;;;;;;;20.57;34.05;101286.75;104418;1291;62082;-80
2024/03/21 07:41:59;;;;;;;;;;;;;;;20.59;33.96;101280.72;104457;1291;62089;-81
2024/03/21 07:44:33;;;;;;;;;;;;;;;20.62;34.01;101275.59;104013;1293;72553;-81
2024/03/21 07:46:58;;;;;;;;;;;;;;;20.63;34.14;101274.09;104232;1293;62202;-80
2024/03/21 07:49:24;;;;;;;;;;;;;;;20.64;34.13;101274.02;103898;1294;62083;-79
2024/03/21 07:51:50;;;;;;;;;;;;;;;20.65;33.94;101271.09;104021;1291;62133;-82
2024/03/21 07:54:17;;;;;;;;;;;;;;;20.67;33.97;101266.31;103892;1291;62057;-83
2024/03/21 07:56:42;;;;;;;;;;;;;;;20.68;34.18;101261.43;104272;1291;62103;-80
2024/03/21 07:59:08;;;;;;;;;;;;;;;20.68;34.13;101257.50;104108;1292;62299;-82
2024/03/21 08:01:33;;;;;;;;;;;;;;;20.69;34.38;101255.13;104144;1291;62186;-79
2024/03/21 08:04:03;;;;;;;;;;;;;;;20.70;34.45;101261.84;104026;1297;62211;-80
2024/03/21 08:06:29;;;;;;;;;;;;;;;20.72;34.55;101264.60;104228;1291;72504;-79
2024/03/21 08:08:55;;;;;;;;;;;;;;;20.71;34.42;101262.52;105723;1291;61977;-79
2024/03/21 08:11:20;;;;;;;;;;;;;;;20.69;34.65;101264.46;105719;1292;60334;-79
2024/03/21 08:13:46;;;;;;;;;;;;;;;20.65;34.54;101269.84;105875;1291;59770;-79
2024/03/21 08:16:11;;;;;;;;;;;;;;;20.59;34.47;101271.44;105832;1292;60742;-79
2024/03/21 08:18:37;;;;;;;;;;;;;;;20.58;34.58;101280.27;105875;1291;60196;-80
2024/03/21 08:21:03;;;;;;;;;;;;;;;20.58;34.31;101296.39;105682;1294;77405;-79
2024/03/21 08:23:28;;;;;;;;;;;;;;;20.45;34.29;101307.14;105844;1291;60009;-81
2024/03/21 08:25:54;;;;;;;;;;;;;;;20.33;34.21;101314.88;105851;1291;60370;-79
2024/03/21 08:28:20;;;;;;;;;;;;;;;20.33;34.60;101329.73;105847;1291;59597;-80
2024/03/21 08:30:46;;;;;;;;;;;;;;;20.35;34.52;101333.36;105819;1291;60208;-79
2024/03/21 08:33:14;;;;;;;;;;;;;;;20.37;34.53;101341.80;105878;1291;60590;-81
2024/03/21 08:35:40;;;;;;;;;;;;;;;20.40;34.46;101346.25;105744;1293;59996;-79
2024/03/21 08:38:06;;;;;;;;;;;;;;;20.44;34.37;101349.27;105789;1291;60196;-79
2024/03/21 08:40:32;;;;;;;;;;;;;;;20.47;34.19;101348.01;105739;1291;60551;-79
2024/03/21 08:42:58;;;;;;;;;;;;;;;20.50;34.41;101352.48;104591;1294;60236;-80
2024/03/21 08:45:24;;;;;;;;;;;;;;;20.53;34.25;101364.43;104327;1293;62495;-79
2024/03/21 08:47:50;;;;;;;;;;;;;;;20.55;34.23;101369.13;103904;1291;62078;-79
2024/03/21 08:50:16;;;;;;;;;;;;;;;20.57;34.06;101366.36;103797;1291;72465;-78
2024/03/21 08:52:41;;;;;;;;;;;;;;;20.58;34.16;101369.16;103954;1294;62188;-78
2024/03/21 08:55:07;;;;;;;;;;;;;;;20.58;34.09;101375.25;104249;1295;62244;-79
2024/03/21 08:57:33;;;;;;;;;;;;;;;20.56;34.11;101383.24;104411;1292;62125;-80
2024/03/21 08:59:59;;;;;;;;;;;;;;;20.55;34.19;101385.80;104016;1297;62032;-79
2024/03/21 09:02:25;;;;;;;;;;;;;;;20.55;34.30;101382.95;104007;1291;62128;-79
2024/03/21 09:04:51;;;;;;;;;;;;;;;20.56;34.51;101376.06;103896;1294;76338;-79
2024/03/21 09:07:16;;;;;;;;;;;;;;;20.57;34.59;101380.98;103980;1293;62006;-80
2024/03/21 09:09:42;;;;;;;;;;;;;;;20.59;34.74;101379.46;104357;1294;62118;-79
2024/03/21 09:12:07;;;;;;;;;;;;;;;20.61;34.87;101391.34;104338;1294;62207;-79
2024/03/21 09:14:33;;;;;;;;;;;;;;;20.63;34.73;101398.56;104283;1291;62134;-80
2024/03/21 09:16:59;;;;;;;;;;;;;;;20.64;34.73;101391.14;104518;1293;62169;-80
2024/03/21 09:19:25;;;;;;;;;;;;;;;20.66;34.88;101380.31;104453;1295;61147;-80
2024/03/21 09:21:50;;;;;;;;;;;;;;;20.68;34.85;101380.92;104558;1295;62134;-78
2024/03/21 09:24:16;;;;;;;;;;;;;;;20.70;34.78;101373.86;104332;1293;62115;-80
2024/03/21 09:26:42;;;;;;;;;;;;;;;20.72;34.94;101364.42;104305;1294;62202;-79
2024/03/21 09:29:08;;;;;;;;;;;;;;;20.73;34.92;101361.45;103934;1293;62022;-80
2024/03/21 09:31:33;;;;;;;;;;;;;;;20.76;34.99;101360.43;104235;1294;62116;-78
2024/03/21 09:33:59;;;;;;;;;;;;;;;20.78;34.97;101369.42;103360;1297;62512;-79
2024/03/21 09:36:26;;;;;;;;;;;;;;;20.79;34.88;101368.48;103824;1292;73406;-78
2024/03/21 09:38:52;;;;;;;;;;;;;;;20.79;35.05;101361.83;103462;1297;62120;-80
2024/03/21 09:41:17;;;;;;;;;;;;;;;20.80;34.89;101363.76;104003;1294;62173;-81
2024/03/21 09:43:43;;;;;;;;;;;;;;;20.80;34.95;101363.61;103657;1297;63354;-78
2024/03/21 09:46:10;;;;;;;;;;;;;;;20.79;34.87;101361.33;103944;1294;62207;-78
2024/03/21 09:48:35;;;;;;;;;;;;;;;20.76;34.92;101357.53;104218;1294;65412;-79
2024/03/21 09:51:01;;;;;;;;;;;;;;;20.73;35.00;101342.19;104242;1293;60229;-78
2024/03/21 09:53:27;;;;;;;;;;;;;;;20.68;34.88;101331.91;104929;1292;62111;-79
2024/03/21 09:55:52;;;;;;;;;;;;;;;20.62;35.20;101329.56;104405;1293;60695;-79
2024/03/21 09:58:18;;;;;;;;;;;;;;;20.63;35.93;101329.34;104468;1291;60162;-79
2024/03/21 10:00:43;;;;;;;;;;;;;;;20.66;36.31;101327.90;104582;1293;61256;-79
2024/03/21 10:03:13;;;;;;;;;;;;;;;20.68;36.62;101320.63;104884;1292;60496;-80
2024/03/21 10:05:42;;;;;;;;;;;;;;;20.70;36.83;101323.02;104922;1293;62096;-81
2024/03/21 10:08:08;;;;;;;;;;;;;;;20.71;36.97;101319.95;104325;1292;62010;-79
2024/03/21 10:10:33;;;;;;;;;;;;;;;20.72;36.81;101316.81;104430;1295;60446;-80
2024/03/21 10:13:00;;;;;;;;;;;;;;;20.70;36.89;101311.59;104501;1294;62236;-79
2024/03/21 10:15:26;;;;;;;;;;;;;;;20.65;36.89;101304.86;104445;1297;62027;-78
2024/03/21 10:17:51;;;;;;;;;;;;;;;20.63;36.98;101303.95;104321;1294;62203;-78
2024/03/21 10:20:17;;;;;;;;;;;;;;;20.64;37.15;101297.98;104412;1295;62189;-80
2024/03/21 10:22:45;;;;;;;;;;;;;;;20.66;37.21;101295.73;104573;1294;62267;-83
2024/03/21 10:25:16;;;;;;;;;;;;;;;20.65;36.96;101292.05;104541;1297;76446;-80
2024/03/21 10:27:46;;;;;;;;;;;;;;;20.63;36.91;101288.73;105796;1293;60068;-79
2024/03/21 10:30:18;;;;;;;;;;;;;;;20.63;36.84;101284.63;105787;1294;60174;-78
2024/03/21 10:32:44;;;;;;;;;;;;;;;20.60;36.79;101282.45;105724;1293;72334;-78
2024/03/21 10:35:11;;;;;;;;;;;;;;;20.57;36.57;101281.80;105641;1297;60411;-80
2024/03/21 10:37:38;;;;;;;;;;;;;;;20.52;36.64;101273.10;105817;1291;59927;-78
2024/03/21 10:40:03;;;;;;;;;;;;;;;20.50;36.41;101271.70;105624;1292;60973;-79
2024/03/21 10:42:33;;;;;;;;;;;;;;;20.46;36.19;101268.49;105677;1293;60693;-79
2024/03/21 10:44:59;;;;;;;;;;;;;;;20.38;36.29;101266.79;105700;1292;75237;-79
2024/03/21 10:47:25;;;;;;;;;;;;;;;20.38;36.29;101268.61;105775;1297;60562;-79
2024/03/21 10:49:51;;;;;;;;;;;;;;;20.39;36.12;101261.44;105647;1292;59857;-78
2024/03/21 10:52:17;;;;;;;;;;;;;;;20.36;36.08;101262.29;105518;1292;59985;-78
2024/03/21 10:54:42;;;;;;;;;;;;;;;20.34;36.06;101262.60;103720;1291;62130;-80
2024/03/21 10:57:17;;;;;;;;;;;;;;;20.33;35.90;101255.15;103714;1292;62091;-81
2024/03/21 10:59:43;;;;;;;;;;;;;;;20.31;35.95;101251.16;104094;1296;60212;-78
2024/03/21 11:02:15;;;;;;;;;;;;;;;20.27;35.92;101249.44;104467;1294;62128;-79
2024/03/21 11:04:41;;;;;;;;;;;;;;;20.17;35.57;101247.55;104922;1293;72699;-80
2024/03/21 11:07:07;;;;;;;;;;;;;;;20.07;35.88;101242.61;104651;1294;62521;-80
2024/03/21 11:09:33;;;;;;;;;;;;;;;20.07;35.88;101241.70;104945;1294;62143;-81
2024/03/21 11:11:59;;;;;;;;;;;;;;;20.06;35.82;101241.77;104767;1295;60332;-82
2024/03/21 11:14:24;;;;;;;;;;;;;;;20.06;35.95;101239.47;104810;1293;61387;-81
2024/03/21 11:16:53;;;;;;;;;;;;;;;20.03;35.71;101238.75;104513;1295;60827;-79
2024/03/21 11:19:18;;;;;;;;;;;;;;;20.01;35.76;101231.54;104123;1295;62137;-80
2024/03/21 11:21:46;;;;;;;;;;;;;;;20.03;35.74;101231.27;104222;1293;62185;-80
2024/03/21 11:24:14;;;;;;;;;;;;;;;19.94;35.60;101226.23;104667;1295;60471;-81
2024/03/21 11:26:40;;;;;;;;;;;;;;;19.90;35.76;101224.16;104197;1297;76257;-82
2024/03/21 11:29:08;;;;;;;;;;;;;;;19.91;35.55;101222.29;104066;1293;62115;-80
2024/03/21 11:31:34;;;;;;;;;;;;;;;19.91;35.64;101219.95;104337;1294;61947;-79
2024/03/21 11:34:00;;;;;;;;;;;;;;;19.92;35.50;101217.41;104223;1295;62122;-78
2024/03/21 11:36:26;;;;;;;;;;;;;;;19.93;35.59;101212.53;104393;1294;62086;-80
2024/03/21 11:38:52;;;;;;;;;;;;;;;19.90;35.50;101205.55;104345;1294;62338;-80
2024/03/21 11:41:19;;;;;;;;;;;;;;;19.90;35.44;101199.66;104280;1295;62073;-81
2024/03/21 11:43:51;;;;;;;;;;;;;;;19.92;35.57;101197.40;105679;1292;59738;-79
2024/03/21 11:46:19;;;;;;;;;;;;;;;19.99;36.30;101193.23;105319;1296;75645;-80
2024/03/21 11:48:58;;;;;;;;;;;;;;;20.04;36.24;101191.15;104309;1295;62087;-79
2024/03/21 11:51:24;;;;;;;;;;;;;;;20.01;36.18;101186.50;104295;1295;62957;-79
2024/03/21 11:53:49;;;;;;;;;;;;;;;19.98;35.99;101184.39;104133;1295;62192;-80
2024/03/21 11:56:15;;;;;;;;;;;;;;;19.96;35.94;101185.20;104549;1292;62083;-80
2024/03/21 11:58:41;;;;;;;;;;;;;;;19.91;35.84;101183.67;104425;1294;62166;-80
2024/03/21 12:01:06;;;;;;;;;;;;;;;19.91;35.79;101180.45;104671;1293;62283;-81
2024/03/21 12:03:32;;;;;;;;;;;;;;;19.92;35.74;101175.64;105126;1292;62292;-80
2024/03/21 12:05:57;;;;;;;;;;;;;;;19.88;35.56;101165.64;105355;1294;60517;-80
2024/03/21 12:08:23;;;;;;;;;;;;;;;19.84;35.49;101167.67;104864;1293;60130;-79
2024/03/21 12:10:49;;;;;;;;;;;;;;;19.78;35.48;101164.46;104871;1292;62027;-79
2024/03/21 12:13:15;;;;;;;;;;;;;;;19.79;35.70;101162.98;104863;1291;62092;-79
2024/03/21 12:15:41;;;;;;;;;;;;;;;19.81;35.41;101159.14;104677;1296;62163;-80
2024/03/21 12:18:06;;;;;;;;;;;;;;;19.74;35.52;101154.34;104422;1297;62178;-80
2024/03/21 12:20:33;;;;;;;;;;;;;;;19.74;35.62;101149.88;104801;1293;74245;-80